Hudson, SD

5:44 AM CDT on May 03, 2015 (GMT -0500)
Campingfarmer | | Change Station
CLOSE
Current Station
Personal Weather Station
Location: Rock Valley, IA
Elevation: 1253 ft
Nearby Weather Stations

Elev 1253 ft 43.19 °N, 96.39 °W | Updated 2 seconds ago

Mostly Cloudy
Mostly Cloudy
55.8 °F
Feels Like 55.8 °F
N
0.0
Wind Variable Wind from North
Gusts 0.0 mph

Today
High -- | Low -- °F
--% Chance of Precip.
Yesterday
High -- | Low -- °F
Precip. -- in
6:16 AM 8:29 PM
Full, 100% visible
Pressure 29.70 in
Visibility 10.0 miles
Clouds Clear
Dew Point 52 °F
Humidity 86%
Rainfall 0.00 in
Snow Depth Not available.
UV 0 out of 12
Pollen 10.90 out of 12
Air Quality Not available.
Flu Activity Sporadic
METAR KORC 031035Z AUTO 20007KT 10SM CLR 12/09 A2970 RMK AO2

More Conditions Fewer Conditions

Pressure 29.70 in
Visibility 10.0 miles
Clouds Clear
Dew Point 52 °F
Humidity 86%
Rainfall 0.00 in
Snow Depth Not available.
UV 0 out of 12
Pollen 10.90 out of 12
Air Quality Not available.
Flu Activity Sporadic
METAR KORC 031035Z AUTO 20007KT 10SM CLR 12/09 A2970 RMK AO2

More Conditions Fewer Conditions

Nepal has a long way to go to dig out and rebuild from a devastating earthquake. We have teamed up with several charities and organizations to make contributing to the relief effort as easy as possible.
How you can help: Portlight Strategies | Red Cross

10-Day Weather Forecast

Almanac

Astronomy

May. 03, 2015 Rise Set
Actual Time
Civil Twilight
Nautical Twilight
Astronomical Twilight
Moon
Length of Visible Light
Length of Day
Tomorrow will be .
, % of the Moon is Illuminated

Today's Extremes

State Highs State Lows

Community

WunderPhotos

Upload Photos

1,818,187 photos uploaded!

WunderBlogs® & News

Nearby

Air Quality

  Air Quality AQ Index Pollutant
Not available.

Snow Depth

Station Depth Elevation

Earthquake Activity

City Distance Mag. Time & Date
Minimum magnitude displayed is 2.5.

Coastal Water Temperatures

Place Temperature

Stations

Nearby Weather Stations

Station Location Temp. Windchill Dew Point Humidity Wind Precip. Elev Updated Type